sensor_id;sensor_type;location;lat;lon;timestamp;temperature;humidity
67163;DHT22;54092;53.088;8.850;2022-07-29T00:01:00;14.20;99.90
67163;DHT22;54092;53.088;8.850;2022-07-29T00:03:26;14.20;99.90
67163;DHT22;54092;53.088;8.850;2022-07-29T00:05:51;14.20;99.90
67163;DHT22;54092;53.088;8.850;2022-07-29T00:08:18;14.10;99.90
67163;DHT22;54092;53.088;8.850;2022-07-29T00:10:44;14.10;99.90
67163;DHT22;54092;53.088;8.850;2022-07-29T00:13:09;14.10;99.90
67163;DHT22;54092;53.088;8.850;2022-07-29T00:15:35;14.10;99.90
67163;DHT22;54092;53.088;8.850;2022-07-29T00:18:00;14.10;99.90
67163;DHT22;54092;53.088;8.850;2022-07-29T00:20:26;14.10;99.90
67163;DHT22;54092;53.088;8.850;2022-07-29T00:22:52;14.00;99.90
67163;DHT22;54092;53.088;8.850;2022-07-29T00:25:18;14.00;99.90
67163;DHT22;54092;53.088;8.850;2022-07-29T00:27:43;14.00;99.90
67163;DHT22;54092;53.088;8.850;2022-07-29T00:30:11;14.10;99.90
67163;DHT22;54092;53.088;8.850;2022-07-29T00:32:36;14.00;99.90
67163;DHT22;54092;53.088;8.850;2022-07-29T00:35:02;14.00;99.90
67163;DHT22;54092;53.088;8.850;2022-07-29T00:37:46;14.00;99.90
67163;DHT22;54092;53.088;8.850;2022-07-29T00:40:12;14.00;99.90
67163;DHT22;54092;53.088;8.850;2022-07-29T00:42:48;14.00;99.90
67163;DHT22;54092;53.088;8.850;2022-07-29T00:45:14;14.00;99.90
67163;DHT22;54092;53.088;8.850;2022-07-29T00:47:40;14.00;99.90
67163;DHT22;54092;53.088;8.850;2022-07-29T00:50:07;14.00;99.90
67163;DHT22;54092;53.088;8.850;2022-07-29T00:52:34;14.00;99.90
67163;DHT22;54092;53.088;8.850;2022-07-29T00:55:01;14.00;99.90
67163;DHT22;54092;53.088;8.850;2022-07-29T00:57:27;14.00;99.90
67163;DHT22;54092;53.088;8.850;2022-07-29T00:59:53;14.00;99.90
67163;DHT22;54092;53.088;8.850;2022-07-29T01:02:18;14.00;99.90
67163;DHT22;54092;53.088;8.850;2022-07-29T01:04:44;14.00;99.90
67163;DHT22;54092;53.088;8.850;2022-07-29T01:07:10;13.90;99.90
67163;DHT22;54092;53.088;8.850;2022-07-29T01:09:36;13.90;99.90
67163;DHT22;54092;53.088;8.850;2022-07-29T01:12:02;13.90;99.90
67163;DHT22;54092;53.088;8.850;2022-07-29T01:14:29;14.00;99.90
67163;DHT22;54092;53.088;8.850;2022-07-29T01:17:00;13.90;99.90
67163;DHT22;54092;53.088;8.850;2022-07-29T01:19:52;14.00;99.90
67163;DHT22;54092;53.088;8.850;2022-07-29T01:30:49;13.90;99.90
67163;DHT22;54092;53.088;8.850;2022-07-29T01:33:17;13.90;99.90
67163;DHT22;54092;53.088;8.850;2022-07-29T01:36:10;13.90;99.90
67163;DHT22;54092;53.088;8.850;2022-07-29T01:38:39;13.90;99.90
67163;DHT22;54092;53.088;8.850;2022-07-29T01:41:09;13.90;99.90
67163;DHT22;54092;53.088;8.850;2022-07-29T01:43:44;13.90;99.90
67163;DHT22;54092;53.088;8.850;2022-07-29T01:46:13;14.00;99.90
67163;DHT22;54092;53.088;8.850;2022-07-29T01:48:45;13.90;99.90
67163;DHT22;54092;53.088;8.850;2022-07-29T01:51:17;13.90;99.90
67163;DHT22;54092;53.088;8.850;2022-07-29T01:54:04;14.00;99.90
67163;DHT22;54092;53.088;8.850;2022-07-29T01:56:33;13.90;99.90
67163;DHT22;54092;53.088;8.850;2022-07-29T01:59:01;13.90;99.90
67163;DHT22;54092;53.088;8.850;2022-07-29T02:01:29;13.90;99.90
67163;DHT22;54092;53.088;8.850;2022-07-29T02:03:57;13.90;99.90
67163;DHT22;54092;53.088;8.850;2022-07-29T02:06:24;13.90;99.90
67163;DHT22;54092;53.088;8.850;2022-07-29T02:08:51;13.90;99.90
67163;DHT22;54092;53.088;8.850;2022-07-29T02:11:18;13.90;99.90
67163;DHT22;54092;53.088;8.850;2022-07-29T02:13:44;13.90;99.90
67163;DHT22;54092;53.088;8.850;2022-07-29T02:16:12;13.90;99.90
67163;DHT22;54092;53.088;8.850;2022-07-29T02:18:41;13.90;99.90
67163;DHT22;54092;53.088;8.850;2022-07-29T02:21:08;13.80;99.90
67163;DHT22;54092;53.088;8.850;2022-07-29T02:23:35;13.80;99.90
67163;DHT22;54092;53.088;8.850;2022-07-29T02:26:02;13.80;99.90
67163;DHT22;54092;53.088;8.850;2022-07-29T02:28:29;13.80;99.90
67163;DHT22;54092;53.088;8.850;2022-07-29T02:30:59;13.80;99.90
67163;DHT22;54092;53.088;8.850;2022-07-29T02:33:25;13.80;99.90
67163;DHT22;54092;53.088;8.850;2022-07-29T02:35:52;13.90;99.90
67163;DHT22;54092;53.088;8.850;2022-07-29T02:38:18;13.90;99.90
67163;DHT22;54092;53.088;8.850;2022-07-29T02:41:18;13.90;99.90
67163;DHT22;54092;53.088;8.850;2022-07-29T02:43:47;13.90;99.90
67163;DHT22;54092;53.088;8.850;2022-07-29T02:46:20;13.80;99.90
67163;DHT22;54092;53.088;8.850;2022-07-29T02:49:08;13.90;99.90
67163;DHT22;54092;53.088;8.850;2022-07-29T02:51:45;13.90;99.90
67163;DHT22;54092;53.088;8.850;2022-07-29T02:54:23;13.80;99.90
67163;DHT22;54092;53.088;8.850;2022-07-29T02:56:52;13.80;99.90
67163;DHT22;54092;53.088;8.850;2022-07-29T02:59:23;13.80;99.90
67163;DHT22;54092;53.088;8.850;2022-07-29T03:01:50;13.80;99.90
67163;DHT22;54092;53.088;8.850;2022-07-29T03:04:19;13.80;99.90
67163;DHT22;54092;53.088;8.850;2022-07-29T03:06:46;13.80;99.90
67163;DHT22;54092;53.088;8.850;2022-07-29T03:09:12;13.80;99.90
67163;DHT22;54092;53.088;8.850;2022-07-29T03:11:38;13.90;99.90
67163;DHT22;54092;53.088;8.850;2022-07-29T03:14:05;13.90;99.90
67163;DHT22;54092;53.088;8.850;2022-07-29T03:16:32;13.90;99.90
67163;DHT22;54092;53.088;8.850;2022-07-29T03:18:58;13.90;99.90
67163;DHT22;54092;53.088;8.850;2022-07-29T03:21:24;13.80;99.90
67163;DHT22;54092;53.088;8.850;2022-07-29T03:23:49;13.80;99.90
67163;DHT22;54092;53.088;8.850;2022-07-29T03:26:15;13.90;99.90
67163;DHT22;54092;53.088;8.850;2022-07-29T03:28:41;13.90;99.90
67163;DHT22;54092;53.088;8.850;2022-07-29T03:31:06;13.90;99.90
67163;DHT22;54092;53.088;8.850;2022-07-29T03:33:32;13.90;99.90
67163;DHT22;54092;53.088;8.850;2022-07-29T03:35:57;14.00;99.90
67163;DHT22;54092;53.088;8.850;2022-07-29T03:38:25;14.00;99.90
67163;DHT22;54092;53.088;8.850;2022-07-29T03:40:56;14.00;99.90
67163;DHT22;54092;53.088;8.850;2022-07-29T03:43:24;14.00;99.90
67163;DHT22;54092;53.088;8.850;2022-07-29T03:45:52;14.00;99.90
67163;DHT22;54092;53.088;8.850;2022-07-29T03:48:22;14.00;99.90
67163;DHT22;54092;53.088;8.850;2022-07-29T03:50:50;14.00;99.90
67163;DHT22;54092;53.088;8.850;2022-07-29T03:53:16;14.00;99.90
67163;DHT22;54092;53.088;8.850;2022-07-29T03:55:44;14.00;99.90
67163;DHT22;54092;53.088;8.850;2022-07-29T03:58:11;14.00;99.90
67163;DHT22;54092;53.088;8.850;2022-07-29T04:00:38;14.00;99.90
67163;DHT22;54092;53.088;8.850;2022-07-29T04:03:04;14.00;99.90
67163;DHT22;54092;53.088;8.850;2022-07-29T04:05:30;14.00;99.90
67163;DHT22;54092;53.088;8.850;2022-07-29T04:07:55;14.00;99.90
67163;DHT22;54092;53.088;8.850;2022-07-29T04:10:21;14.00;99.90
67163;DHT22;54092;53.088;8.850;2022-07-29T04:12:48;14.00;99.90
67163;DHT22;54092;53.088;8.850;2022-07-29T04:15:14;14.00;99.90
67163;DHT22;54092;53.088;8.850;2022-07-29T04:17:40;14.10;99.90
67163;DHT22;54092;53.088;8.850;2022-07-29T04:20:05;14.10;99.90
67163;DHT22;54092;53.088;8.850;2022-07-29T04:22:31;14.10;99.90
67163;DHT22;54092;53.088;8.850;2022-07-29T04:24:57;14.10;99.90
67163;DHT22;54092;53.088;8.850;2022-07-29T04:27:22;14.10;99.90
67163;DHT22;54092;53.088;8.850;2022-07-29T04:29:48;14.10;99.90
67163;DHT22;54092;53.088;8.850;2022-07-29T04:32:13;14.10;99.90
67163;DHT22;54092;53.088;8.850;2022-07-29T04:34:39;14.10;99.90
67163;DHT22;54092;53.088;8.850;2022-07-29T04:37:04;14.20;99.90
67163;DHT22;54092;53.088;8.850;2022-07-29T04:39:30;14.20;99.90
67163;DHT22;54092;53.088;8.850;2022-07-29T04:41:55;14.20;99.90
67163;DHT22;54092;53.088;8.850;2022-07-29T04:44:21;14.20;99.90
67163;DHT22;54092;53.088;8.850;2022-07-29T04:46:47;14.20;99.90
67163;DHT22;54092;53.088;8.850;2022-07-29T04:49:12;14.20;99.90
67163;DHT22;54092;53.088;8.850;2022-07-29T04:51:38;14.20;99.90
67163;DHT22;54092;53.088;8.850;2022-07-29T04:54:04;14.30;99.90
67163;DHT22;54092;53.088;8.850;2022-07-29T04:56:29;14.30;99.90
67163;DHT22;54092;53.088;8.850;2022-07-29T04:58:55;14.30;99.90
67163;DHT22;54092;53.088;8.850;2022-07-29T05:01:20;14.30;99.90
67163;DHT22;54092;53.088;8.850;2022-07-29T05:03:46;14.30;99.90
67163;DHT22;54092;53.088;8.850;2022-07-29T05:06:11;14.40;99.90
67163;DHT22;54092;53.088;8.850;2022-07-29T05:08:37;14.40;99.90
67163;DHT22;54092;53.088;8.850;2022-07-29T05:11:03;14.50;99.90
67163;DHT22;54092;53.088;8.850;2022-07-29T05:13:29;14.50;99.90
67163;DHT22;54092;53.088;8.850;2022-07-29T05:15:54;14.60;99.90
67163;DHT22;54092;53.088;8.850;2022-07-29T05:18:20;14.60;99.90
67163;DHT22;54092;53.088;8.850;2022-07-29T05:20:45;14.70;99.90
67163;DHT22;54092;53.088;8.850;2022-07-29T05:23:11;14.70;99.90
67163;DHT22;54092;53.088;8.850;2022-07-29T05:25:40;14.80;99.90
67163;DHT22;54092;53.088;8.850;2022-07-29T05:28:06;14.80;99.90
67163;DHT22;54092;53.088;8.850;2022-07-29T05:30:31;14.90;99.90
67163;DHT22;54092;53.088;8.850;2022-07-29T05:32:57;14.90;99.90
67163;DHT22;54092;53.088;8.850;2022-07-29T05:35:22;15.00;99.90
67163;DHT22;54092;53.088;8.850;2022-07-29T05:37:48;15.00;99.90
67163;DHT22;54092;53.088;8.850;2022-07-29T05:40:14;15.10;99.90
67163;DHT22;54092;53.088;8.850;2022-07-29T05:42:39;15.10;99.90
67163;DHT22;54092;53.088;8.850;2022-07-29T05:45:05;15.20;99.90
67163;DHT22;54092;53.088;8.850;2022-07-29T05:47:31;15.20;99.90
67163;DHT22;54092;53.088;8.850;2022-07-29T05:49:57;15.20;99.90
67163;DHT22;54092;53.088;8.850;2022-07-29T05:52:22;15.30;99.90
67163;DHT22;54092;53.088;8.850;2022-07-29T05:54:48;15.30;99.90
67163;DHT22;54092;53.088;8.850;2022-07-29T05:59:43;15.30;99.90
67163;DHT22;54092;53.088;8.850;2022-07-29T06:02:08;15.40;99.90
67163;DHT22;54092;53.088;8.850;2022-07-29T06:04:34;15.40;99.90
67163;DHT22;54092;53.088;8.850;2022-07-29T06:07:00;15.50;99.90
67163;DHT22;54092;53.088;8.850;2022-07-29T06:09:25;15.60;99.90
67163;DHT22;54092;53.088;8.850;2022-07-29T06:11:51;15.60;99.90
67163;DHT22;54092;53.088;8.850;2022-07-29T06:14:17;15.70;99.90
67163;DHT22;54092;53.088;8.850;2022-07-29T06:16:43;15.80;99.90
67163;DHT22;54092;53.088;8.850;2022-07-29T06:19:08;15.80;99.90
67163;DHT22;54092;53.088;8.850;2022-07-29T06:21:34;15.90;99.90
67163;DHT22;54092;53.088;8.850;2022-07-29T06:23:59;15.90;99.90
67163;DHT22;54092;53.088;8.850;2022-07-29T06:26:25;15.90;99.90
67163;DHT22;54092;53.088;8.850;2022-07-29T06:28:50;15.90;99.90
67163;DHT22;54092;53.088;8.850;2022-07-29T06:31:16;16.00;99.90
67163;DHT22;54092;53.088;8.850;2022-07-29T06:33:41;16.00;99.90
67163;DHT22;54092;53.088;8.850;2022-07-29T06:36:07;16.00;99.90
67163;DHT22;54092;53.088;8.850;2022-07-29T06:38:33;16.00;99.90
67163;DHT22;54092;53.088;8.850;2022-07-29T06:40:59;16.10;99.90
67163;DHT22;54092;53.088;8.850;2022-07-29T06:43:26;16.20;99.90
67163;DHT22;54092;53.088;8.850;2022-07-29T06:45:52;16.30;99.90
67163;DHT22;54092;53.088;8.850;2022-07-29T06:48:18;16.30;99.90
67163;DHT22;54092;53.088;8.850;2022-07-29T06:50:43;16.40;99.90
67163;DHT22;54092;53.088;8.850;2022-07-29T06:53:09;16.40;99.90
67163;DHT22;54092;53.088;8.850;2022-07-29T06:55:34;16.50;99.90
67163;DHT22;54092;53.088;8.850;2022-07-29T06:58:02;16.50;99.90
67163;DHT22;54092;53.088;8.850;2022-07-29T07:00:27;16.60;99.90
67163;DHT22;54092;53.088;8.850;2022-07-29T07:02:53;16.70;99.90
67163;DHT22;54092;53.088;8.850;2022-07-29T07:05:18;16.90;99.90
67163;DHT22;54092;53.088;8.850;2022-07-29T07:07:44;17.00;98.50
67163;DHT22;54092;53.088;8.850;2022-07-29T07:10:09;17.10;98.50
67163;DHT22;54092;53.088;8.850;2022-07-29T07:12:35;17.10;97.70
67163;DHT22;54092;53.088;8.850;2022-07-29T07:15:00;17.20;97.70
67163;DHT22;54092;53.088;8.850;2022-07-29T07:17:26;17.20;97.90
67163;DHT22;54092;53.088;8.850;2022-07-29T07:19:51;17.30;98.10
67163;DHT22;54092;53.088;8.850;2022-07-29T07:22:17;17.50;97.50
67163;DHT22;54092;53.088;8.850;2022-07-29T07:24:42;17.60;95.60
67163;DHT22;54092;53.088;8.850;2022-07-29T07:27:08;17.90;95.60
67163;DHT22;54092;53.088;8.850;2022-07-29T07:29:33;18.00;92.40
67163;DHT22;54092;53.088;8.850;2022-07-29T07:31:58;18.10;93.00
67163;DHT22;54092;53.088;8.850;2022-07-29T07:34:24;18.20;92.20
67163;DHT22;54092;53.088;8.850;2022-07-29T07:36:49;18.20;90.20
67163;DHT22;54092;53.088;8.850;2022-07-29T07:39:15;18.10;89.90
67163;DHT22;54092;53.088;8.850;2022-07-29T07:41:40;18.20;90.30
67163;DHT22;54092;53.088;8.850;2022-07-29T07:44:06;18.30;90.00
67163;DHT22;54092;53.088;8.850;2022-07-29T07:46:31;18.50;86.60
67163;DHT22;54092;53.088;8.850;2022-07-29T07:48:57;18.60;87.40
67163;DHT22;54092;53.088;8.850;2022-07-29T07:51:22;18.80;83.10
67163;DHT22;54092;53.088;8.850;2022-07-29T07:53:48;18.90;80.70
67163;DHT22;54092;53.088;8.850;2022-07-29T07:56:15;19.10;79.90
67163;DHT22;54092;53.088;8.850;2022-07-29T07:58:41;19.20;83.40
67163;DHT22;54092;53.088;8.850;2022-07-29T08:01:08;19.30;77.50
67163;DHT22;54092;53.088;8.850;2022-07-29T08:03:34;19.30;74.70
67163;DHT22;54092;53.088;8.850;2022-07-29T08:05:59;19.30;75.30
67163;DHT22;54092;53.088;8.850;2022-07-29T08:08:25;19.30;75.30
67163;DHT22;54092;53.088;8.850;2022-07-29T08:10:50;19.30;77.40
67163;DHT22;54092;53.088;8.850;2022-07-29T08:13:20;19.10;76.40
67163;DHT22;54092;53.088;8.850;2022-07-29T08:15:46;19.10;79.30
67163;DHT22;54092;53.088;8.850;2022-07-29T08:18:12;19.10;81.90
67163;DHT22;54092;53.088;8.850;2022-07-29T08:20:38;19.10;80.50
67163;DHT22;54092;53.088;8.850;2022-07-29T08:23:05;19.20;80.50
67163;DHT22;54092;53.088;8.850;2022-07-29T08:25:32;19.20;78.20
67163;DHT22;54092;53.088;8.850;2022-07-29T08:27:58;19.30;76.40
67163;DHT22;54092;53.088;8.850;2022-07-29T08:30:24;19.50;76.10
67163;DHT22;54092;53.088;8.850;2022-07-29T08:32:49;19.80;74.40
67163;DHT22;54092;53.088;8.850;2022-07-29T08:35:22;20.20;71.70
67163;DHT22;54092;53.088;8.850;2022-07-29T08:37:48;20.60;66.10
67163;DHT22;54092;53.088;8.850;2022-07-29T08:40:13;20.70;64.40
67163;DHT22;54092;53.088;8.850;2022-07-29T08:42:39;20.50;67.00
67163;DHT22;54092;53.088;8.850;2022-07-29T08:45:05;20.60;64.70
67163;DHT22;54092;53.088;8.850;2022-07-29T08:47:32;20.70;63.00
67163;DHT22;54092;53.088;8.850;2022-07-29T08:49:58;20.80;60.40
67163;DHT22;54092;53.088;8.850;2022-07-29T08:52:26;21.00;62.60
67163;DHT22;54092;53.088;8.850;2022-07-29T08:54:53;21.30;62.20
67163;DHT22;54092;53.088;8.850;2022-07-29T08:57:19;21.70;58.00
67163;DHT22;54092;53.088;8.850;2022-07-29T08:59:47;22.00;54.40
67163;DHT22;54092;53.088;8.850;2022-07-29T09:02:22;22.10;53.00
67163;DHT22;54092;53.088;8.850;2022-07-29T09:04:49;22.30;53.30
67163;DHT22;54092;53.088;8.850;2022-07-29T09:07:16;22.60;51.00
67163;DHT22;54092;53.088;8.850;2022-07-29T09:09:43;22.90;49.70
67163;DHT22;54092;53.088;8.850;2022-07-29T09:12:09;23.40;48.30
67163;DHT22;54092;53.088;8.850;2022-07-29T09:14:40;23.80;45.60
67163;DHT22;54092;53.088;8.850;2022-07-29T09:17:06;24.10;44.40
67163;DHT22;54092;53.088;8.850;2022-07-29T09:19:36;24.70;42.20
67163;DHT22;54092;53.088;8.850;2022-07-29T09:22:04;25.10;41.80
67163;DHT22;54092;53.088;8.850;2022-07-29T09:27:01;25.40;41.80
67163;DHT22;54092;53.088;8.850;2022-07-29T09:29:27;25.50;40.10
67163;DHT22;54092;53.088;8.850;2022-07-29T09:31:54;25.60;39.60
67163;DHT22;54092;53.088;8.850;2022-07-29T09:34:28;25.90;39.90
67163;DHT22;54092;53.088;8.850;2022-07-29T09:36:56;26.10;38.50
67163;DHT22;54092;53.088;8.850;2022-07-29T09:39:37;25.90;37.80
67163;DHT22;54092;53.088;8.850;2022-07-29T09:42:05;25.40;39.00
67163;DHT22;54092;53.088;8.850;2022-07-29T09:44:44;25.30;39.30
67163;DHT22;54092;53.088;8.850;2022-07-29T09:47:10;25.20;38.80
67163;DHT22;54092;53.088;8.850;2022-07-29T09:49:54;25.50;39.70
67163;DHT22;54092;53.088;8.850;2022-07-29T09:52:20;25.80;37.80
67163;DHT22;54092;53.088;8.850;2022-07-29T09:54:45;26.10;36.60
67163;DHT22;54092;53.088;8.850;2022-07-29T09:57:25;26.30;36.20
67163;DHT22;54092;53.088;8.850;2022-07-29T10:00:01;26.30;36.50
67163;DHT22;54092;53.088;8.850;2022-07-29T10:02:34;26.00;37.00
67163;DHT22;54092;53.088;8.850;2022-07-29T10:05:01;25.90;38.00
67163;DHT22;54092;53.088;8.850;2022-07-29T10:07:44;26.00;36.80
67163;DHT22;54092;53.088;8.850;2022-07-29T10:10:09;26.00;36.70
67163;DHT22;54092;53.088;8.850;2022-07-29T10:12:48;26.00;37.10
67163;DHT22;54092;53.088;8.850;2022-07-29T10:15:15;26.00;35.50
67163;DHT22;54092;53.088;8.850;2022-07-29T10:17:41;26.10;34.90
67163;DHT22;54092;53.088;8.850;2022-07-29T10:20:08;26.00;35.30
67163;DHT22;54092;53.088;8.850;2022-07-29T10:22:34;26.00;36.00
67163;DHT22;54092;53.088;8.850;2022-07-29T10:24:59;25.90;36.20
67163;DHT22;54092;53.088;8.850;2022-07-29T10:27:25;25.80;35.30
67163;DHT22;54092;53.088;8.850;2022-07-29T10:29:50;25.80;37.20
67163;DHT22;54092;53.088;8.850;2022-07-29T10:32:34;25.70;36.90
67163;DHT22;54092;53.088;8.850;2022-07-29T10:35:22;25.50;37.40
67163;DHT22;54092;53.088;8.850;2022-07-29T10:41:12;25.20;37.50
67163;DHT22;54092;53.088;8.850;2022-07-29T10:43:57;25.40;36.00
67163;DHT22;54092;53.088;8.850;2022-07-29T10:46:24;25.30;36.20
67163;DHT22;54092;53.088;8.850;2022-07-29T10:52:02;25.90;35.20
67163;DHT22;54092;53.088;8.850;2022-07-29T11:05:06;29.40;30.00
67163;DHT22;54092;53.088;8.850;2022-07-29T11:07:33;30.20;29.00
67163;DHT22;54092;53.088;8.850;2022-07-29T11:15:08;32.30;25.80
67163;DHT22;54092;53.088;8.850;2022-07-29T11:22:59;31.80;25.60
67163;DHT22;54092;53.088;8.850;2022-07-29T11:25:25;31.10;26.80
67163;DHT22;54092;53.088;8.850;2022-07-29T11:27:52;30.50;27.10
67163;DHT22;54092;53.088;8.850;2022-07-29T11:30:19;30.80;27.20
67163;DHT22;54092;53.088;8.850;2022-07-29T11:32:45;31.20;25.60
67163;DHT22;54092;53.088;8.850;2022-07-29T11:35:22;30.50;26.20
67163;DHT22;54092;53.088;8.850;2022-07-29T11:38:26;29.80;27.30
67163;DHT22;54092;53.088;8.850;2022-07-29T11:43:50;29.30;28.00
67163;DHT22;54092;53.088;8.850;2022-07-29T11:46:46;29.20;28.40
67163;DHT22;54092;53.088;8.850;2022-07-29T11:49:22;28.90;28.50
67163;DHT22;54092;53.088;8.850;2022-07-29T11:51:52;28.40;29.40
67163;DHT22;54092;53.088;8.850;2022-07-29T11:54:25;28.50;29.60
67163;DHT22;54092;53.088;8.850;2022-07-29T11:56:52;28.40;29.20
67163;DHT22;54092;53.088;8.850;2022-07-29T11:59:19;28.30;28.80
67163;DHT22;54092;53.088;8.850;2022-07-29T12:02:00;28.40;29.30
67163;DHT22;54092;53.088;8.850;2022-07-29T12:04:26;28.20;29.50
67163;DHT22;54092;53.088;8.850;2022-07-29T12:06:55;28.20;28.80
67163;DHT22;54092;53.088;8.850;2022-07-29T12:09:22;27.90;29.90
67163;DHT22;54092;53.088;8.850;2022-07-29T12:11:48;27.70;30.50
67163;DHT22;54092;53.088;8.850;2022-07-29T12:14:29;27.40;30.20
67163;DHT22;54092;53.088;8.850;2022-07-29T12:16:55;27.20;31.30
67163;DHT22;54092;53.088;8.850;2022-07-29T12:19:21;26.90;30.50
67163;DHT22;54092;53.088;8.850;2022-07-29T12:21:47;26.70;31.30
67163;DHT22;54092;53.088;8.850;2022-07-29T12:24:13;26.60;30.50
67163;DHT22;54092;53.088;8.850;2022-07-29T12:26:57;26.40;30.10
67163;DHT22;54092;53.088;8.850;2022-07-29T12:29:23;26.30;30.60
67163;DHT22;54092;53.088;8.850;2022-07-29T12:31:53;26.30;31.30
67163;DHT22;54092;53.088;8.850;2022-07-29T12:34:21;26.50;31.60
67163;DHT22;54092;53.088;8.850;2022-07-29T12:36:48;26.70;31.70
67163;DHT22;54092;53.088;8.850;2022-07-29T12:39:18;26.80;31.10
67163;DHT22;54092;53.088;8.850;2022-07-29T12:41:44;26.80;30.90
67163;DHT22;54092;53.088;8.850;2022-07-29T12:44:10;26.70;30.60
67163;DHT22;54092;53.088;8.850;2022-07-29T12:46:35;26.40;30.50
67163;DHT22;54092;53.088;8.850;2022-07-29T12:49:01;26.40;30.70
67163;DHT22;54092;53.088;8.850;2022-07-29T12:51:32;26.30;30.80
67163;DHT22;54092;53.088;8.850;2022-07-29T12:54:09;26.30;30.70
67163;DHT22;54092;53.088;8.850;2022-07-29T12:56:39;26.40;31.00
67163;DHT22;54092;53.088;8.850;2022-07-29T12:59:19;26.40;31.50
67163;DHT22;54092;53.088;8.850;2022-07-29T13:01:47;26.40;30.50
67163;DHT22;54092;53.088;8.850;2022-07-29T13:04:31;26.30;31.20
67163;DHT22;54092;53.088;8.850;2022-07-29T13:07:05;26.30;32.20
67163;DHT22;54092;53.088;8.850;2022-07-29T13:09:43;26.30;32.40
67163;DHT22;54092;53.088;8.850;2022-07-29T13:12:11;26.30;32.10
67163;DHT22;54092;53.088;8.850;2022-07-29T13:14:39;26.30;31.70
67163;DHT22;54092;53.088;8.850;2022-07-29T13:17:08;26.20;32.10
67163;DHT22;54092;53.088;8.850;2022-07-29T13:22:11;26.30;32.30
67163;DHT22;54092;53.088;8.850;2022-07-29T13:24:48;26.20;32.90
67163;DHT22;54092;53.088;8.850;2022-07-29T13:27:18;26.30;33.00
67163;DHT22;54092;53.088;8.850;2022-07-29T13:29:44;26.10;33.40
67163;DHT22;54092;53.088;8.850;2022-07-29T13:32:11;26.10;34.40
67163;DHT22;54092;53.088;8.850;2022-07-29T13:34:37;26.10;34.80
67163;DHT22;54092;53.088;8.850;2022-07-29T13:37:02;26.10;34.30
67163;DHT22;54092;53.088;8.850;2022-07-29T13:39:28;26.20;33.60
67163;DHT22;54092;53.088;8.850;2022-07-29T13:41:53;26.20;33.70
67163;DHT22;54092;53.088;8.850;2022-07-29T13:44:19;26.30;34.10
67163;DHT22;54092;53.088;8.850;2022-07-29T13:46:45;26.20;32.20
67163;DHT22;54092;53.088;8.850;2022-07-29T13:49:10;26.10;33.40
67163;DHT22;54092;53.088;8.850;2022-07-29T13:51:37;26.00;34.00
67163;DHT22;54092;53.088;8.850;2022-07-29T13:54:03;26.00;34.20
67163;DHT22;54092;53.088;8.850;2022-07-29T13:56:29;26.00;34.40
67163;DHT22;54092;53.088;8.850;2022-07-29T13:58:54;26.00;34.10
67163;DHT22;54092;53.088;8.850;2022-07-29T14:01:20;26.00;34.30
67163;DHT22;54092;53.088;8.850;2022-07-29T14:03:45;25.90;34.30
67163;DHT22;54092;53.088;8.850;2022-07-29T14:06:11;25.80;33.90
67163;DHT22;54092;53.088;8.850;2022-07-29T14:08:36;25.80;34.00
67163;DHT22;54092;53.088;8.850;2022-07-29T14:11:02;25.80;34.60
67163;DHT22;54092;53.088;8.850;2022-07-29T14:13:27;25.80;34.80
67163;DHT22;54092;53.088;8.850;2022-07-29T14:15:53;25.70;34.20
67163;DHT22;54092;53.088;8.850;2022-07-29T14:18:18;25.80;34.90
67163;DHT22;54092;53.088;8.850;2022-07-29T14:20:44;25.80;34.90
67163;DHT22;54092;53.088;8.850;2022-07-29T14:23:09;25.90;34.80
67163;DHT22;54092;53.088;8.850;2022-07-29T14:25:35;26.00;35.00
67163;DHT22;54092;53.088;8.850;2022-07-29T14:28:01;26.20;34.50
67163;DHT22;54092;53.088;8.850;2022-07-29T14:30:26;26.20;34.60
67163;DHT22;54092;53.088;8.850;2022-07-29T14:32:52;26.20;34.40
67163;DHT22;54092;53.088;8.850;2022-07-29T14:35:17;26.10;34.50
67163;DHT22;54092;53.088;8.850;2022-07-29T14:37:43;26.10;34.40
67163;DHT22;54092;53.088;8.850;2022-07-29T14:40:10;26.10;35.40
67163;DHT22;54092;53.088;8.850;2022-07-29T14:42:36;26.10;34.90
67163;DHT22;54092;53.088;8.850;2022-07-29T14:45:04;26.00;35.00
67163;DHT22;54092;53.088;8.850;2022-07-29T14:47:29;25.90;34.70
67163;DHT22;54092;53.088;8.850;2022-07-29T14:49:55;25.90;34.50
67163;DHT22;54092;53.088;8.850;2022-07-29T14:52:20;25.90;35.10
67163;DHT22;54092;53.088;8.850;2022-07-29T14:54:46;26.00;34.70
67163;DHT22;54092;53.088;8.850;2022-07-29T14:57:12;25.90;33.70
67163;DHT22;54092;53.088;8.850;2022-07-29T14:59:37;25.80;34.30
67163;DHT22;54092;53.088;8.850;2022-07-29T15:02:02;25.60;34.70
67163;DHT22;54092;53.088;8.850;2022-07-29T15:04:28;25.40;34.40
67163;DHT22;54092;53.088;8.850;2022-07-29T15:06:53;25.20;35.20
67163;DHT22;54092;53.088;8.850;2022-07-29T15:09:19;25.10;35.40
67163;DHT22;54092;53.088;8.850;2022-07-29T15:11:44;25.00;35.40
67163;DHT22;54092;53.088;8.850;2022-07-29T15:14:10;24.80;35.70
67163;DHT22;54092;53.088;8.850;2022-07-29T15:16:37;24.70;35.50
67163;DHT22;54092;53.088;8.850;2022-07-29T15:19:03;24.60;36.00
67163;DHT22;54092;53.088;8.850;2022-07-29T15:21:29;24.60;37.00
67163;DHT22;54092;53.088;8.850;2022-07-29T15:23:54;24.40;37.40
67163;DHT22;54092;53.088;8.850;2022-07-29T15:26:20;24.50;37.00
67163;DHT22;54092;53.088;8.850;2022-07-29T15:28:46;24.50;37.30
67163;DHT22;54092;53.088;8.850;2022-07-29T15:31:11;24.40;37.20
67163;DHT22;54092;53.088;8.850;2022-07-29T15:33:37;24.40;37.40
67163;DHT22;54092;53.088;8.850;2022-07-29T15:36:02;24.40;37.70
67163;DHT22;54092;53.088;8.850;2022-07-29T15:38:30;24.30;39.00
67163;DHT22;54092;53.088;8.850;2022-07-29T15:40:55;24.30;37.90
67163;DHT22;54092;53.088;8.850;2022-07-29T15:43:21;24.20;38.00
67163;DHT22;54092;53.088;8.850;2022-07-29T15:45:47;24.20;38.10
67163;DHT22;54092;53.088;8.850;2022-07-29T15:48:31;24.20;38.00
67163;DHT22;54092;53.088;8.850;2022-07-29T15:50:58;24.20;38.50
67163;DHT22;54092;53.088;8.850;2022-07-29T15:53:24;24.20;38.40
67163;DHT22;54092;53.088;8.850;2022-07-29T15:55:50;24.20;38.90
67163;DHT22;54092;53.088;8.850;2022-07-29T15:58:16;24.20;39.30
67163;DHT22;54092;53.088;8.850;2022-07-29T16:00:42;24.20;39.20
67163;DHT22;54092;53.088;8.850;2022-07-29T16:03:08;24.20;39.60
67163;DHT22;54092;53.088;8.850;2022-07-29T16:05:33;24.20;40.00
67163;DHT22;54092;53.088;8.850;2022-07-29T16:07:59;24.30;40.00
67163;DHT22;54092;53.088;8.850;2022-07-29T16:10:25;24.30;40.10
67163;DHT22;54092;53.088;8.850;2022-07-29T16:12:51;24.30;39.90
67163;DHT22;54092;53.088;8.850;2022-07-29T16:15:16;24.30;40.30
67163;DHT22;54092;53.088;8.850;2022-07-29T16:17:42;24.30;41.30
67163;DHT22;54092;53.088;8.850;2022-07-29T16:20:08;24.20;40.90